Time;durP1;ratioP1;P1;durP2;ratioP2;P2;SDS_P1;SDS_P2;PMS_P1;PMS_P2;Temp;Humidity;BMP_temperature;BMP_pressure;BME280_temperature;BME280_humidity;BME280_pressure;Samples;Min_cycle;Max_cycle;Signal;HPM_P1;HPM_P2
2023/07/16 00:00:42;;;;;;;10.02;4.30;;;;;;;16.62;100.00;100679.09;10409958;28;20037;-70
2023/07/16 00:05:43;;;;;;;6.03;4.32;;;;;;;16.69;100.00;100683.34;10411147;28;20049;-70
2023/07/16 00:10:43;;;;;;;11.80;4.90;;;;;;;16.63;100.00;100676.13;10411819;28;20030;-70
2023/07/16 00:15:43;;;;;;;14.85;4.80;;;;;;;16.55;100.00;100681.13;10411885;28;20037;-72
2023/07/16 00:20:44;;;;;;;10.05;3.38;;;;;;;16.59;100.00;100685.03;10410701;28;20065;-72
2023/07/16 00:25:44;;;;;;;7.38;4.03;;;;;;;16.56;100.00;100690.97;10411970;28;20037;-71
2023/07/16 00:30:44;;;;;;;10.52;5.50;;;;;;;16.54;100.00;100687.69;10411814;28;20052;-72
2023/07/16 00:35:49;;;;;;;11.18;4.88;;;;;;;16.52;100.00;100691.47;10411017;28;20038;-72
2023/07/16 00:40:49;;;;;;;6.22;3.83;;;;;;;16.58;100.00;100683.38;10411418;28;20061;-72
2023/07/16 00:45:50;;;;;;;17.20;4.03;;;;;;;16.56;100.00;100685.50;10411551;28;20092;-71
2023/07/16 00:50:50;;;;;;;12.20;4.88;;;;;;;16.60;100.00;100698.47;10410149;28;20064;-72
2023/07/16 00:55:51;;;;;;;12.20;5.45;;;;;;;16.79;100.00;100696.44;10393641;28;20029;-72
2023/07/16 01:00:51;;;;;;;13.77;5.55;;;;;;;16.78;100.00;100702.13;10411180;28;20037;-72
2023/07/16 01:06:12;;;;;;;17.45;6.20;;;;;;;16.64;100.00;100691.44;10413627;28;20032;-72
2023/07/16 01:11:13;;;;;;;13.65;5.30;;;;;;;16.60;100.00;100701.22;10419044;28;20029;-71
2023/07/16 01:16:24;;;;;;;8.00;5.05;;;;;;;16.53;100.00;100708.72;10433695;28;20437;-72
2023/07/16 01:21:24;;;;;;;8.75;5.20;;;;;;;16.48;100.00;100695.75;10400065;28;20036;-71
2023/07/16 01:26:51;;;;;;;6.40;4.63;;;;;;;16.43;100.00;100701.13;10418109;28;20052;-72
2023/07/16 01:31:52;;;;;;;9.13;4.57;;;;;;;16.43;100.00;100703.88;10416437;28;20539;-72
2023/07/16 01:36:52;;;;;;;15.40;5.75;;;;;;;16.35;100.00;100701.50;10417514;28;20092;-72
2023/07/16 01:41:53;;;;;;;21.90;6.13;;;;;;;16.49;100.00;100694.69;10400063;28;20037;-72
2023/07/16 01:47:20;;;;;;;8.48;5.72;;;;;;;16.48;100.00;100701.22;10417668;28;20057;-72
2023/07/16 01:52:20;;;;;;;9.90;6.28;;;;;;;16.50;100.00;100699.09;10415557;28;20052;-71
2023/07/16 01:57:21;;;;;;;11.57;6.28;;;;;;;16.58;100.00;100697.88;10416604;28;20041;-72
2023/07/16 02:02:21;;;;;;;13.55;6.97;;;;;;;16.56;100.00;100696.44;10415953;28;20033;-72
2023/07/16 02:07:24;;;;;;;13.73;7.32;;;;;;;16.59;100.00;100701.44;10417843;28;20496;-71
2023/07/16 02:12:24;;;;;;;9.98;6.30;;;;;;;16.51;100.00;100689.81;10416770;28;20119;-72
2023/07/16 02:17:24;;;;;;;13.57;7.80;;;;;;;16.50;100.00;100687.34;10432055;28;20037;-72
2023/07/16 02:22:25;;;;;;;16.00;6.40;;;;;;;16.60;100.00;100695.75;10413663;28;20041;-71
2023/07/16 02:27:25;;;;;;;11.82;6.30;;;;;;;16.60;100.00;100706.69;10431245;28;20099;-72
2023/07/16 02:32:26;;;;;;;16.23;6.07;;;;;;;16.60;100.00;100670.31;10415168;28;20113;-72
2023/07/16 02:37:26;;;;;;;9.05;6.00;;;;;;;16.53;100.00;100708.72;10415231;28;20393;-72
2023/07/16 02:42:26;;;;;;;11.82;6.97;;;;;;;16.65;100.00;100719.59;10414866;28;20045;-72
2023/07/16 02:47:27;;;;;;;12.00;8.27;;;;;;;16.69;100.00;100705.22;10414859;28;20488;-71
2023/07/16 02:52:27;;;;;;;11.88;6.95;;;;;;;16.67;100.00;100704.63;10415514;28;20041;-72
2023/07/16 02:57:28;;;;;;;11.38;6.38;;;;;;;16.60;100.00;100708.59;10414399;28;20041;-71
2023/07/16 03:02:28;;;;;;;12.32;5.10;;;;;;;16.47;100.00;100713.25;10395766;28;20155;-72
2023/07/16 03:07:29;;;;;;;6.72;5.22;;;;;;;16.36;100.00;100711.34;10413304;28;20037;-71
2023/07/16 03:12:29;;;;;;;9.20;5.13;;;;;;;16.29;100.00;100724.31;10430379;28;20034;-72
2023/07/16 03:17:29;;;;;;;14.88;5.25;;;;;;;16.33;100.00;100738.34;10414454;28;20076;-72
2023/07/16 03:22:30;;;;;;;9.45;5.22;;;;;;;16.42;100.00;100745.09;10414590;28;20060;-72
2023/07/16 03:27:30;;;;;;;5.35;3.88;;;;;;;16.59;100.00;100739.72;10411948;28;20029;-72
2023/07/16 03:32:31;;;;;;;7.10;4.85;;;;;;;16.66;100.00;100740.44;10412489;28;20034;-72
2023/07/16 03:37:31;;;;;;;11.20;5.30;;;;;;;16.58;100.00;100747.09;10414042;28;20350;-71
2023/07/16 03:42:31;;;;;;;12.32;4.88;;;;;;;16.55;100.00;100757.66;10395901;28;20030;-72
2023/07/16 03:47:32;;;;;;;17.38;6.38;;;;;;;16.59;100.00;100761.56;10412644;28;20065;-72
2023/07/16 03:52:32;;;;;;;9.18;7.20;;;;;;;16.57;100.00;100774.69;10412981;28;20033;-72
2023/07/16 03:57:33;;;;;;;20.50;5.60;;;;;;;16.46;100.00;100779.94;10412496;28;20121;-72
2023/07/16 04:02:33;;;;;;;8.55;6.65;;;;;;;16.27;100.00;100773.75;10413060;28;20057;-72
2023/07/16 04:07:33;;;;;;;15.63;6.60;;;;;;;16.24;100.00;100776.09;10411090;28;20038;-72
2023/07/16 04:12:34;;;;;;;9.13;5.72;;;;;;;16.27;100.00;100778.38;10411707;28;20041;-72
2023/07/16 04:17:34;;;;;;;10.43;5.22;;;;;;;16.55;100.00;100787.75;10411842;28;20476;-72
2023/07/16 04:22:35;;;;;;;12.50;6.30;;;;;;;16.79;100.00;100783.09;10411590;28;20113;-71
2023/07/16 04:27:36;;;;;;;16.10;6.55;;;;;;;16.81;100.00;100792.72;10394362;28;20037;-72
2023/07/16 04:32:36;;;;;;;14.25;6.90;;;;;;;16.90;100.00;100802.19;10412460;28;20033;-71
2023/07/16 04:37:37;;;;;;;12.98;7.38;;;;;;;16.95;100.00;100806.97;10412579;28;20048;-72
2023/07/16 04:42:37;;;;;;;12.95;6.13;;;;;;;16.99;100.00;100815.50;10417640;28;20030;-72
2023/07/16 04:47:38;;;;;;;16.40;7.00;;;;;;;16.97;100.00;100821.22;10420050;28;20061;-71
2023/07/16 04:52:38;;;;;;;12.48;5.97;;;;;;;16.99;100.00;100829.19;10419083;28;20104;-71
2023/07/16 04:57:39;;;;;;;10.65;6.20;;;;;;;17.21;100.00;100830.19;10418803;28;20098;-72
2023/07/16 05:02:39;;;;;;;21.15;6.90;;;;;;;17.44;100.00;100829.25;10418402;28;20412;-72
2023/07/16 05:07:40;;;;;;;5.68;5.10;;;;;;;18.20;99.50;100838.03;10418933;28;20045;-72
2023/07/16 05:12:40;;;;;;;8.07;4.97;;;;;;;18.71;90.61;100844.28;10418663;28;20128;-72
2023/07/16 05:17:40;;;;;;;7.80;5.22;;;;;;;19.21;90.69;100839.75;10417482;28;20385;-72
2023/07/16 05:22:41;;;;;;;5.38;4.65;;;;;;;19.22;89.56;100842.22;10433488;28;20040;-72
2023/07/16 05:27:41;;;;;;;10.52;5.28;;;;;;;19.68;89.80;100848.22;10417404;28;20473;-71
2023/07/16 05:32:42;;;;;;;13.65;5.82;;;;;;;19.77;87.35;100854.09;10417921;28;20033;-73
2023/07/16 05:37:42;;;;;;;18.13;5.25;;;;;;;18.85;90.91;100843.94;10418454;28;20120;-72
2023/07/16 05:42:42;;;;;;;14.65;5.57;;;;;;;18.37;95.98;100859.94;10417438;28;20037;-72
2023/07/16 05:47:43;;;;;;;10.32;6.30;;;;;;;17.93;100.00;100859.75;10418514;28;20089;-71
2023/07/16 05:52:43;;;;;;;11.63;5.60;;;;;;;18.02;98.79;100865.66;10399020;28;20038;-72
2023/07/16 05:57:44;;;;;;;7.30;5.85;;;;;;;18.67;95.52;100862.31;10415679;28;20091;-71
2023/07/16 06:02:44;;;;;;;17.20;6.00;;;;;;;19.25;90.26;100869.16;10415200;28;20068;-71
2023/07/16 06:07:44;;;;;;;12.93;6.20;;;;;;;20.40;78.09;100871.69;10417444;28;20056;-72
2023/07/16 06:12:45;;;;;;;16.67;7.15;;;;;;;20.32;75.00;100885.91;10416421;28;20034;-72
2023/07/16 06:17:45;;;;;;;11.63;4.47;;;;;;;20.34;76.79;100888.41;10432223;28;20034;-71
2023/07/16 06:22:46;;;;;;;11.25;5.85;;;;;;;19.43;81.82;100869.91;10431361;28;20397;-72
2023/07/16 06:27:47;;;;;;;16.83;5.68;;;;;;;20.71;79.35;100891.19;10415752;28;20120;-72
2023/07/16 06:32:47;;;;;;;11.90;6.47;;;;;;;21.43;71.19;100908.94;10415749;28;20037;-71
2023/07/16 06:37:47;;;;;;;14.80;6.45;;;;;;;21.96;69.97;100906.06;10415575;28;20060;-72
2023/07/16 06:42:48;;;;;;;11.57;5.40;;;;;;;21.83;69.85;100904.66;10415333;28;20369;-72
2023/07/16 06:47:48;;;;;;;10.02;5.38;;;;;;;21.56;71.02;100926.88;10430338;28;20060;-71
2023/07/16 06:52:49;;;;;;;12.38;6.35;;;;;;;20.58;74.96;100935.66;10415016;28;20068;-72
2023/07/16 06:57:49;;;;;;;6.35;5.68;;;;;;;21.11;74.25;100931.06;10414610;28;20048;-72
2023/07/16 07:02:49;;;;;;;7.18;5.80;;;;;;;20.69;76.80;100947.59;10413460;28;20094;-71
2023/07/16 07:07:50;;;;;;;13.63;5.35;;;;;;;21.31;73.59;100939.44;10414800;28;20103;-71
2023/07/16 07:12:50;;;;;;;6.15;5.55;;;;;;;20.94;73.37;100936.75;10414655;28;20465;-72
2023/07/16 07:17:51;;;;;;;9.13;5.15;;;;;;;20.32;76.67;100949.16;10413472;28;20041;-72
2023/07/16 07:22:52;;;;;;;6.88;4.97;;;;;;;19.82;80.24;100955.00;10415127;28;20037;-71
2023/07/16 07:27:52;;;;;;;10.20;5.25;;;;;;;19.39;81.68;100973.94;10413360;28;20109;-72
2023/07/16 07:32:53;;;;;;;9.73;4.78;;;;;;;19.47;84.28;100978.19;10413291;28;20465;-70
2023/07/16 07:37:53;;;;;;;10.32;5.43;;;;;;;21.22;75.28;100973.25;10413322;28;20044;-71
2023/07/16 07:42:53;;;;;;;10.48;4.65;;;;;;;21.57;75.29;100967.13;10428147;28;20441;-74
2023/07/16 07:47:54;;;;;;;16.55;6.22;;;;;;;21.49;72.27;100973.16;10412115;28;20049;-74
2023/07/16 07:52:54;;;;;;;9.82;5.22;;;;;;;22.24;65.45;100987.50;10396587;28;20060;-73
2023/07/16 07:57:55;;;;;;;9.80;5.82;;;;;;;21.08;73.46;100986.66;10413363;28;20047;-73
2023/07/16 08:02:55;;;;;;;3.60;2.72;;;;;;;21.40;72.62;101000.38;10413433;28;20025;-73
2023/07/16 08:07:55;;;;;;;6.25;4.07;;;;;;;20.43;76.63;101011.44;10413209;28;20038;-72
2023/07/16 08:12:56;;;;;;;14.00;5.00;;;;;;;19.93;81.26;101020.81;10413380;28;20060;-72
2023/07/16 08:17:59;;;;;;;5.18;3.80;;;;;;;20.60;79.51;101014.09;10419392;28;20064;-72
2023/07/16 08:22:59;;;;;;;7.22;5.40;;;;;;;20.52;76.54;101022.03;10418484;28;20101;-72
2023/07/16 08:28:02;;;;;;;10.15;4.05;;;;;;;20.15;78.08;101000.72;10436489;28;20132;-72
2023/07/16 08:33:02;;;;;;;11.00;5.65;;;;;;;19.76;80.60;101030.22;10403890;28;20041;-72
2023/07/16 08:38:03;;;;;;;8.35;4.82;;;;;;;19.76;82.05;101027.47;10419613;28;20091;-72
2023/07/16 08:43:03;;;;;;;10.95;5.05;;;;;;;19.75;81.80;101029.41;10417911;28;20448;-71
2023/07/16 08:48:03;;;;;;;11.63;5.72;;;;;;;19.77;82.73;101043.69;10401739;28;20057;-72
2023/07/16 08:53:05;;;;;;;8.52;5.90;;;;;;;20.59;80.54;101050.97;10418947;28;20062;-73
2023/07/16 08:58:05;;;;;;;8.57;4.63;;;;;;;20.81;77.26;101044.56;10418280;28;20041;-73
2023/07/16 09:03:06;;;;;;;5.40;4.32;;;;;;;21.11;73.14;101052.22;10360826;28;20045;-72
2023/07/16 09:08:06;;;;;;;5.18;4.70;;;;;;;20.46;75.88;101045.03;10419603;28;20113;-72
2023/07/16 09:13:06;;;;;;;7.95;3.90;;;;;;;20.54;75.52;101048.16;10419388;28;20447;-72
2023/07/16 09:18:10;;;;;;;10.55;4.72;;;;;;;20.28;75.16;101048.97;10433307;28;20041;-72
2023/07/16 09:23:10;;;;;;;7.07;4.90;;;;;;;20.05;77.52;101061.09;10417866;28;20044;-72
2023/07/16 09:28:12;;;;;;;4.68;3.92;;;;;;;20.18;78.82;101057.94;10417542;28;20044;-73
2023/07/16 09:33:14;;;;;;;12.85;4.90;;;;;;;20.36;76.41;101070.50;10400650;28;20223;-73
2023/07/16 09:38:15;;;;;;;5.82;4.63;;;;;;;19.94;77.97;101085.69;10433218;28;20035;-72
2023/07/16 09:43:15;;;;;;;7.50;4.45;;;;;;;20.12;76.69;101075.47;10416613;28;20037;-72
2023/07/16 09:48:16;;;;;;;12.35;5.60;;;;;;;21.83;71.03;101087.44;10417982;28;20159;-73
2023/07/16 09:53:16;;;;;;;11.20;4.47;;;;;;;23.42;61.18;101083.03;10416156;28;20032;-73
2023/07/16 09:58:19;;;;;;;6.30;4.45;;;;;;;22.59;61.21;101076.91;10415829;28;20029;-72
2023/07/16 10:03:19;;;;;;;9.48;4.78;;;;;;;22.29;62.85;101098.66;10415855;28;20065;-73
2023/07/16 10:08:20;;;;;;;7.53;3.80;;;;;;;22.81;59.95;101085.78;10431375;28;20392;-73
2023/07/16 10:13:22;;;;;;;3.88;2.75;;;;;;;23.10;55.18;101115.66;10414937;28;20556;-72
2023/07/16 10:18:27;;;;;;;13.05;3.70;;;;;;;22.72;55.30;101128.88;10431681;28;20036;-72
2023/07/16 10:23:45;;;;;;;9.75;3.70;;;;;;;23.82;54.35;101114.50;10416419;28;20039;-72
2023/07/16 10:28:45;;;;;;;2.40;2.10;;;;;;;23.38;52.75;101106.81;10416926;28;20115;-73
2023/07/16 10:34:02;;;;;;;4.05;3.47;;;;;;;24.89;50.47;101117.84;10415035;28;20042;-72
2023/07/16 10:39:03;;;;;;;2.78;2.58;;;;;;;25.02;46.11;101117.22;10415761;28;20029;-73
2023/07/16 10:44:04;;;;;;;6.10;2.80;;;;;;;24.37;45.71;101136.69;10413920;28;20114;-73
2023/07/16 10:49:05;;;;;;;4.93;2.72;;;;;;;23.63;47.77;101138.28;10413343;28;20137;-73
2023/07/16 10:54:06;;;;;;;5.05;3.25;;;;;;;22.95;50.16;101138.59;10415157;28;20426;-73
2023/07/16 10:59:10;;;;;;;5.38;2.80;;;;;;;22.94;51.50;101162.63;10415897;28;20029;-72
2023/07/16 11:04:10;;;;;;;4.35;3.28;;;;;;;22.22;53.31;101175.34;10415430;28;20113;-73
2023/07/16 11:09:11;;;;;;;4.32;2.65;;;;;;;23.75;50.09;101166.50;10415250;28;20481;-73
2023/07/16 11:14:11;;;;;;;5.82;2.63;;;;;;;22.67;51.51;101173.84;10429561;28;20116;-72
2023/07/16 11:19:11;;;;;;;2.90;2.38;;;;;;;23.92;46.42;101165.34;10413848;28;20128;-72
2023/07/16 11:24:12;;;;;;;2.92;2.20;;;;;;;25.05;43.71;101172.06;10413892;28;20042;-72
2023/07/16 11:29:14;;;;;;;18.02;2.85;;;;;;;24.90;45.67;101175.75;10413210;28;20484;-73
2023/07/16 11:34:14;;;;;;;8.02;2.88;;;;;;;26.00;43.28;101181.75;10413106;28;20136;-73
2023/07/16 11:39:15;;;;;;;5.57;2.40;;;;;;;26.48;38.84;101155.91;10413197;28;20103;-73
2023/07/16 11:44:19;;;;;;;2.90;1.95;;;;;;;25.56;41.52;101176.34;10412686;28;20030;-73
2023/07/16 11:49:19;;;;;;;6.13;2.47;;;;;;;25.27;42.11;101168.84;10410854;28;20126;-73
2023/07/16 11:54:20;;;;;;;9.30;3.90;;;;;;;24.64;44.77;101183.38;10412293;28;20093;-73
2023/07/16 11:59:20;;;;;;;4.05;2.50;;;;;;;24.62;44.92;101180.06;10394480;28;20072;-73
2023/07/16 12:04:20;;;;;;;7.63;3.50;;;;;;;23.89;47.95;101188.88;10410747;28;20033;-73
2023/07/16 12:09:21;;;;;;;13.80;3.92;;;;;;;23.80;49.08;101194.16;10412542;28;20033;-72
2023/07/16 12:14:21;;;;;;;13.88;3.10;;;;;;;23.63;48.77;101194.41;10412432;28;20462;-73
2023/07/16 12:19:22;;;;;;;6.05;2.65;;;;;;;25.08;45.47;101199.19;10412808;28;20457;-73
2023/07/16 12:24:22;;;;;;;5.13;2.78;;;;;;;24.68;46.76;101201.06;10426969;28;20057;-73
2023/07/16 12:29:24;;;;;;;7.82;3.60;;;;;;;24.45;48.70;101198.97;10411543;28;20026;-72
2023/07/16 12:34:24;;;;;;;12.98;3.58;;;;;;;26.33;45.60;101206.94;10411652;28;20038;-73
2023/07/16 12:39:25;;;;;;;13.90;3.53;;;;;;;24.70;46.74;101204.41;10410802;28;20168;-73
2023/07/16 12:44:25;;;;;;;22.05;3.83;;;;;;;24.55;47.94;101208.06;10411274;28;20112;-73
2023/07/16 12:49:26;;;;;;;10.52;2.60;;;;;;;26.00;43.51;101209.50;10393810;28;20149;-73
2023/07/16 12:54:26;;;;;;;17.10;3.17;;;;;;;25.12;43.78;101219.69;10412116;28;20036;-74
2023/07/16 12:59:26;;;;;;;10.25;3.28;;;;;;;25.49;44.86;101215.50;10413495;28;20083;-73
2023/07/16 13:04:27;;;;;;;12.80;4.53;;;;;;;25.97;44.81;101227.59;10418178;28;20128;-72
2023/07/16 13:09:27;;;;;;;8.05;3.28;;;;;;;26.28;43.92;101218.09;10419213;28;20136;-73
2023/07/16 13:14:31;;;;;;;18.05;4.35;;;;;;;25.37;46.71;101240.84;10420723;28;20029;-74
2023/07/16 13:19:33;;;;;;;19.15;5.57;;;;;;;25.98;46.52;101231.19;10400562;28;20037;-78
2023/07/16 13:24:33;;;;;;;9.63;4.55;;;;;;;25.48;47.57;101236.88;10400914;28;20334;-78
2023/07/16 13:29:34;;;;;;;19.75;3.53;;;;;;;25.81;47.03;101251.03;10433554;28;20033;-76
2023/07/16 13:34:34;;;;;;;5.80;2.90;;;;;;;25.78;47.37;101242.44;10417019;28;20120;-76
2023/07/16 13:39:35;;;;;;;8.43;3.80;;;;;;;26.68;46.09;101252.91;10417927;28;20033;-76
2023/07/16 13:44:35;;;;;;;8.65;3.50;;;;;;;26.55;45.99;101248.91;10417238;28;20037;-72
2023/07/16 13:49:36;;;;;;;13.88;4.32;;;;;;;25.93;46.94;101250.66;10418948;28;20140;-74
2023/07/16 13:54:36;;;;;;;16.27;3.20;;;;;;;25.89;47.04;101258.75;10416881;28;20037;-75
2023/07/16 13:59:37;;;;;;;14.75;3.92;;;;;;;25.58;47.69;101263.69;10415999;28;20037;-73
2023/07/16 14:04:37;;;;;;;4.88;3.70;;;;;;;25.82;47.43;101279.63;10432200;28;20093;-76
2023/07/16 14:09:38;;;;;;;9.77;5.05;;;;;;;25.75;47.67;101285.50;10416531;28;20128;-73
2023/07/16 14:14:38;;;;;;;12.50;4.15;;;;;;;25.81;48.04;101295.44;10415858;28;20045;-73
2023/07/16 14:19:39;;;;;;;7.38;3.60;;;;;;;25.64;47.82;101278.34;10414825;28;20037;-74
2023/07/16 14:24:40;;;;;;;11.07;2.88;;;;;;;25.50;47.77;101294.84;10431579;28;20544;-72
2023/07/16 14:29:40;;;;;;;19.52;3.35;;;;;;;25.69;49.24;101281.09;10415332;28;20081;-75
2023/07/16 14:34:41;;;;;;;5.47;2.88;;;;;;;25.21;49.01;101278.94;10415845;28;20480;-74
2023/07/16 14:39:45;;;;;;;10.95;4.60;;;;;;;24.86;49.60;101273.56;10415923;28;20045;-72
2023/07/16 14:44:45;;;;;;;5.70;3.28;;;;;;;24.77;50.61;101279.69;10415064;28;20136;-72
2023/07/16 14:49:46;;;;;;;4.38;2.75;;;;;;;24.69;50.81;101283.03;10416753;28;20088;-73
2023/07/16 14:54:46;;;;;;;8.52;4.47;;;;;;;24.47;50.81;101277.03;10414810;28;20084;-73
2023/07/16 14:59:56;;;;;;;8.65;3.78;;;;;;;24.57;51.03;101282.53;10414745;28;20041;-73
2023/07/16 15:04:57;;;;;;;8.10;3.78;;;;;;;24.65;50.83;101289.44;10398215;28;20444;-73
2023/07/16 15:09:57;;;;;;;12.43;4.15;;;;;;;24.56;51.77;101280.88;10414583;28;20124;-73
2023/07/16 15:14:58;;;;;;;6.80;4.60;;;;;;;24.67;51.23;101281.69;10396623;28;20143;-72
2023/07/16 15:19:58;;;;;;;13.20;4.68;;;;;;;24.20;51.26;101269.88;10412903;28;20072;-73
2023/07/16 15:25:00;;;;;;;5.35;3.35;;;;;;;24.23;51.50;101277.63;10411905;28;20029;-73
2023/07/16 15:30:04;;;;;;;6.57;3.33;;;;;;;24.20;49.14;101288.41;10413553;28;20057;-73
2023/07/16 15:35:05;;;;;;;7.07;3.88;;;;;;;23.70;50.64;101290.09;10413572;28;20392;-73
2023/07/16 15:40:19;;;;;;;14.60;3.65;;;;;;;23.53;50.60;101287.59;10413782;28;20057;-73
2023/07/16 15:45:20;;;;;;;11.73;2.83;;;;;;;23.74;46.94;101286.53;10412046;28;20041;-73
2023/07/16 15:50:25;;;;;;;8.10;3.35;;;;;;;23.71;45.24;101295.38;10418372;28;20053;-73
2023/07/16 15:55:28;;;;;;;3.03;1.80;;;;;;;23.37;44.46;101290.31;10414074;28;20076;-72
2023/07/16 16:00:29;;;;;;;6.80;3.15;;;;;;;23.18;45.32;101290.00;10411986;28;20424;-72
2023/07/16 16:05:31;;;;;;;7.00;2.63;;;;;;;23.10;44.83;101309.03;10427677;28;20069;-73
2023/07/16 16:10:32;;;;;;;11.38;2.55;;;;;;;23.01;44.47;101289.41;10412964;28;20072;-73
2023/07/16 16:15:35;;;;;;;5.60;2.10;;;;;;;22.84;43.83;101305.31;10412836;28;20152;-73
2023/07/16 16:20:36;;;;;;;8.50;3.13;;;;;;;22.44;45.75;101299.34;10395386;28;20072;-72
2023/07/16 16:25:36;;;;;;;4.82;3.70;;;;;;;22.41;47.40;101299.88;10412258;28;20038;-72
2023/07/16 16:30:38;;;;;;;12.65;2.63;;;;;;;22.54;48.52;101287.53;10411441;28;20064;-73
2023/07/16 16:35:40;;;;;;;12.98;3.75;;;;;;;22.35;51.35;101292.66;10416085;28;20159;-73
2023/07/16 16:40:42;;;;;;;8.93;4.15;;;;;;;22.34;53.40;101291.00;10418905;28;20404;-72
2023/07/16 16:45:43;;;;;;;11.40;3.72;;;;;;;22.14;54.63;101282.53;10419961;28;20381;-72
2023/07/16 16:50:44;;;;;;;6.65;3.67;;;;;;;21.87;56.59;101280.72;10420507;28;20104;-73
2023/07/16 16:55:44;;;;;;;9.25;3.47;;;;;;;22.05;55.92;101290.50;10419302;28;20112;-72
2023/07/16 17:00:45;;;;;;;12.52;3.00;;;;;;;21.98;55.92;101293.47;10417793;28;20041;-72
2023/07/16 17:05:59;;;;;;;4.78;3.10;;;;;;;22.00;56.30;101295.97;10417537;28;20533;-72
2023/07/16 17:11:00;;;;;;;13.65;3.28;;;;;;;22.23;55.92;101305.81;10418576;28;20038;-72
2023/07/16 17:16:01;;;;;;;9.57;4.57;;;;;;;22.20;56.41;101303.59;10419104;28;20485;-72
2023/07/16 17:21:02;;;;;;;14.85;3.47;;;;;;;21.83;56.60;101296.94;10417702;28;20033;-72
2023/07/16 17:26:03;;;;;;;7.53;4.15;;;;;;;21.72;57.52;101295.19;10418147;28;20033;-72
2023/07/16 17:31:04;;;;;;;18.13;4.03;;;;;;;21.66;57.59;101300.91;10418478;28;20057;-72
2023/07/16 17:36:05;;;;;;;17.73;4.50;;;;;;;21.63;57.78;101304.19;10416892;28;20038;-73
2023/07/16 17:41:06;;;;;;;6.25;2.65;;;;;;;21.39;57.76;101306.47;10417283;28;20038;-72
2023/07/16 17:46:06;;;;;;;17.38;3.95;;;;;;;21.17;58.66;101298.22;10416090;28;20516;-72
2023/07/16 17:51:08;;;;;;;27.60;3.75;;;;;;;21.01;59.14;101311.78;10417684;28;20061;-72
2023/07/16 17:56:09;;;;;;;11.32;4.65;;;;;;;20.96;59.59;101314.47;10416273;28;20072;-72
2023/07/16 18:01:10;;;;;;;13.05;3.65;;;;;;;20.92;61.99;101315.25;10415422;28;20120;-72
2023/07/16 18:06:10;;;;;;;6.63;2.25;;;;;;;20.88;61.95;101317.69;10417733;28;20128;-72
2023/07/16 18:11:11;;;;;;;6.20;2.53;;;;;;;20.66;64.19;101329.50;10416739;28;20040;-72
2023/07/16 18:16:20;;;;;;;9.57;3.03;;;;;;;20.50;64.97;101324.84;10416602;28;20119;-73
2023/07/16 18:21:21;;;;;;;4.15;2.28;;;;;;;20.40;65.28;101317.28;10414779;28;20103;-73
2023/07/16 18:26:22;;;;;;;5.43;3.38;;;;;;;20.30;64.39;101322.66;10432148;28;20051;-73
2023/07/16 18:31:23;;;;;;;8.10;3.17;;;;;;;20.18;65.34;101324.66;10416102;28;20117;-72
2023/07/16 18:36:23;;;;;;;7.13;3.55;;;;;;;20.09;66.43;101318.75;10415328;28;20112;-72
2023/07/16 18:41:24;;;;;;;11.85;3.72;;;;;;;20.04;67.60;101315.94;10431070;28;20101;-72
2023/07/16 18:46:24;;;;;;;12.23;3.40;;;;;;;20.05;68.38;101325.00;10413412;28;20377;-72
2023/07/16 18:51:25;;;;;;;7.20;3.08;;;;;;;20.11;68.04;101333.06;10415380;28;20059;-73
2023/07/16 18:56:25;;;;;;;3.67;2.15;;;;;;;20.16;67.65;101333.13;10431118;28;20419;-72
2023/07/16 19:01:26;;;;;;;11.75;4.03;;;;;;;19.82;70.66;101339.75;10413206;28;20040;-72
2023/07/16 19:06:26;;;;;;;10.90;2.45;;;;;;;19.45;74.76;101334.63;10414699;28;20534;-72
2023/07/16 19:11:27;;;;;;;6.95;3.15;;;;;;;19.29;77.58;101341.75;10396549;28;20033;-72
2023/07/16 19:16:27;;;;;;;14.15;3.92;;;;;;;19.34;77.74;101339.13;10414434;28;20076;-72
2023/07/16 19:21:28;;;;;;;10.65;3.83;;;;;;;19.35;78.02;101339.94;10412956;28;20128;-72
2023/07/16 19:26:28;;;;;;;10.23;3.03;;;;;;;19.36;74.29;101338.84;10414008;28;20041;-73
2023/07/16 19:31:29;;;;;;;18.80;4.40;;;;;;;19.33;74.88;101344.84;10413251;28;20069;-72
2023/07/16 19:36:29;;;;;;;6.45;2.53;;;;;;;19.37;75.84;101362.47;10413829;28;20072;-72
2023/07/16 19:41:30;;;;;;;6.10;2.55;;;;;;;19.39;77.34;101358.41;10412846;28;20066;-73
2023/07/16 19:46:31;;;;;;;5.15;3.75;;;;;;;19.42;78.83;101359.84;10412012;28;20045;-72
2023/07/16 19:51:31;;;;;;;6.07;2.53;;;;;;;19.35;81.33;101364.66;10412734;28;20461;-72
2023/07/16 19:56:33;;;;;;;10.32;2.88;;;;;;;19.24;82.51;101369.09;10414566;28;20068;-72
2023/07/16 20:01:34;;;;;;;8.15;3.60;;;;;;;19.16;83.83;101375.81;10411579;28;20487;-72
2023/07/16 20:06:34;;;;;;;7.07;2.80;;;;;;;19.13;85.33;101376.31;10412880;28;20045;-73
2023/07/16 20:11:35;;;;;;;2.63;2.42;;;;;;;19.06;84.19;101370.13;10418455;28;20384;-73
2023/07/16 20:16:38;;;;;;;12.15;3.33;;;;;;;18.98;88.25;101381.47;10421149;28;20448;-72
2023/07/16 20:21:39;;;;;;;6.35;2.83;;;;;;;18.93;90.81;101389.59;10421791;28;20469;-73
2023/07/16 20:26:40;;;;;;;24.90;3.50;;;;;;;18.79;91.58;101381.63;10419553;28;20129;-72
2023/07/16 20:31:41;;;;;;;6.63;3.72;;;;;;;18.72;91.60;101374.56;10421967;28;20044;-72
2023/07/16 20:36:42;;;;;;;13.20;3.35;;;;;;;18.70;92.22;101379.47;10420460;28;20437;-73
2023/07/16 20:41:43;;;;;;;10.00;4.15;;;;;;;18.64;91.37;101370.28;10418829;28;20052;-72
2023/07/16 20:46:43;;;;;;;14.43;3.88;;;;;;;18.56;91.49;101384.34;10419724;28;20056;-72
2023/07/16 20:51:44;;;;;;;7.72;3.47;;;;;;;18.48;94.80;101393.78;10420794;28;20033;-72
2023/07/16 20:56:44;;;;;;;4.35;3.72;;;;;;;18.41;95.94;101382.09;10419108;28;20040;-72
2023/07/16 21:01:44;;;;;;;11.45;2.63;;;;;;;18.30;96.35;101378.25;10418088;28;20037;-72
2023/07/16 21:06:45;;;;;;;7.72;2.60;;;;;;;18.32;95.45;101384.34;10435857;28;20038;-73
2023/07/16 21:11:45;;;;;;;14.35;3.25;;;;;;;18.39;95.28;101399.84;10420102;28;20034;-73
2023/07/16 21:16:46;;;;;;;7.28;2.95;;;;;;;18.48;93.91;101409.41;10419187;28;20095;-73
2023/07/16 21:21:47;;;;;;;2.72;2.40;;;;;;;18.45;92.84;101401.66;10417855;28;20030;-72
2023/07/16 21:26:47;;;;;;;9.05;3.22;;;;;;;18.42;90.76;101415.84;10434038;28;20048;-73
2023/07/16 21:31:47;;;;;;;9.48;3.30;;;;;;;18.17;91.26;101416.03;10418378;28;20120;-72
2023/07/16 21:36:48;;;;;;;5.40;2.28;;;;;;;17.86;92.79;101409.75;10419381;28;20040;-72
2023/07/16 21:41:49;;;;;;;6.32;2.30;;;;;;;17.55;94.48;101416.25;10417224;28;20088;-72
2023/07/16 21:46:49;;;;;;;7.68;4.15;;;;;;;17.16;100.00;101423.91;10418099;28;20072;-72
2023/07/16 21:51:52;;;;;;;15.32;3.92;;;;;;;16.83;100.00;101427.84;10416622;28;20468;-72
2023/07/16 21:56:52;;;;;;;12.00;2.58;;;;;;;16.50;100.00;101420.78;10418447;28;20069;-71
2023/07/16 22:01:52;;;;;;;5.68;1.92;;;;;;;16.29;100.00;101426.63;10417845;28;20053;-71
2023/07/16 22:06:53;;;;;;;3.53;3.05;;;;;;;16.16;100.00;101426.75;10417021;28;20076;-73
2023/07/16 22:11:53;;;;;;;13.77;4.10;;;;;;;16.06;100.00;101416.31;10417765;28;20388;-73
2023/07/16 22:16:55;;;;;;;11.63;3.85;;;;;;;16.04;100.00;101410.22;10417212;28;20065;-72
2023/07/16 22:21:55;;;;;;;12.90;4.05;;;;;;;16.04;100.00;101415.69;10416376;28;20116;-73
2023/07/16 22:26:56;;;;;;;15.10;3.65;;;;;;;16.06;100.00;101412.75;10416515;28;20037;-73
2023/07/16 22:31:56;;;;;;;16.38;4.38;;;;;;;16.07;100.00;101422.59;10415207;28;20047;-73
2023/07/16 22:36:56;;;;;;;6.82;3.80;;;;;;;16.01;100.00;101416.13;10416048;28;20041;-73
2023/07/16 22:41:57;;;;;;;4.25;2.58;;;;;;;16.01;100.00;101416.94;10415786;28;20116;-73
2023/07/16 22:46:58;;;;;;;5.35;3.88;;;;;;;16.00;100.00;101415.28;10416225;28;20140;-73
2023/07/16 22:51:58;;;;;;;13.90;3.53;;;;;;;15.99;100.00;101404.59;10415265;28;20040;-73